Date,TemperatureHighF,TemperatureAvgF,TemperatureLowF,DewpointHighF,DewpointAvgF,DewpointLowF,HumidityHigh,HumidityAvg,HumidityLow,PressureMaxIn,PressureMinIn,WindSpeedMaxMPH,WindSpeedAvgMPH,GustSpeedMaxMPH,PrecipitationSumIn
2013-6-1,81,73,67,71,67,63,89,77,62,30.11,29.97,5,0,5,0.00
2013-6-2,82,72,67,72,68,65,95,86,64,30.00,29.84,10,0,10,0.31
2013-6-3,83,72,65,73,68,64,98,84,55,29.95,29.83,10,1,10,0.03
2013-6-4,85,73,62,71,66,59,89,73,49,30.01,29.91,6,0,6,0.00
2013-6-5,80,72,66,72,68,64,94,83,67,30.04,29.89,5,1,5,0.63
2013-6-6,75,69,65,72,67,64,98,94,83,29.92,29.72,2,0,2,0.02
2013-6-7,82,71,67,72,68,64,95,87,62,29.81,29.63,14,2,14,0.72
2013-6-8,80,71,62,71,66,61,96,82,60,30.07,29.80,11,2,11,0.00
2013-6-9,81,72,67,73,69,65,97,87,65,30.10,29.99,6,0,6,0.49
2013-6-10,77,71,66,71,68,64,98,91,73,30.03,29.91,190,2,190,0.37
2013-6-11,86,77,71,75,72,69,97,81,58,30.02,29.93,19,4,19,0.26
2013-6-12,90,80,70,78,72,68,91,76,55,30.06,29.95,11,2,11,0.00
2013-6-13,88,78,70,77,72,67,96,80,55,29.96,29.70,18,5,18,0.91
2013-6-14,83,72,64,70,66,62,96,76,50,30.00,29.79,6,0,6,0.00
2013-6-15,82,72,62,69,63,58,84,69,49,30.13,30.00,3,0,3,0.00
2013-6-16,85,73,62,72,66,60,91,76,52,30.16,30.00,6,1,6,0.05
2013-6-17,83,73,68,75,69,66,97,86,68,30.08,29.93,8,1,8,0.55
2013-6-18,81,72,69,74,70,67,96,88,72,29.94,29.80,14,2,14,0.48
2013-6-19,79,72,68,71,68,66,95,83,68,30.09,29.86,3,0,3,0.00
2013-6-20,80,73,66,70,67,63,94,79,60,30.20,30.08,5,1,5,0.00
2013-6-21,81,72,66,69,66,63,91,77,56,30.26,30.15,5,0,5,0.00
2013-6-22,82,73,65,69,65,62,90,74,51,30.24,30.09,5,0,5,0.00
2013-6-23,82,73,65,73,68,62,90,78,63,30.20,30.09,5,0,5,0.00
2013-6-24,84,76,70,74,70,68,93,79,62,30.24,30.10,10,1,10,0.01
2013-6-25,82,74,68,76,70,66,93,86,64,30.17,30.02,10,1,10,0.26
2013-6-26,85,76,69,76,72,67,97,84,66,30.07,29.91,11,1,11,0.00
2013-6-27,84,78,73,76,72,70,91,81,66,29.97,29.77,21,4,21,0.00
2013-6-28,90,77,70,76,71,69,95,80,48,29.82,29.60,18,3,18,0.75
2013-6-29,84,74,66,73,68,65,96,80,51,29.68,29.61,11,1,11,0.00
2013-6-30,83,73,64,71,66,61,89,77,53,29.77,29.65,6,0,6,0.00